Amado, Arizona
Current Conditions -  °F | °C
As of 6:54 AM on Monday 26 Jan 2015 (Local Time) from KOLS Reporting Station
Overcast Overcast  
Wind Chill: 53°   Ceiling: 11000
Heat Index: 53°   Visibility: 10mi
Dew Point: 27°   Wind: 7mph
Humidity: 37%   Direction: 50°NE
Pressure: 30.17"   Gusts: NA
Location:  31.71°N, 111.07°W
Report Text: KOLS 261354Z AUTO 05006KT 10SM OVC110 12/M03 A3017 RMK AO2 SLP178 T01171028
Loading
Personal Weather Stations






























Interactive Weather Map New forecast layout! Learn more

10-Day Weather Forecast

Advertisements
Track Severe Weather on mobile